createdAt,value
2023-05-09T00:02:15.028Z,5.90
2023-05-09T00:04:43.246Z,5.70
2023-05-09T00:07:11.994Z,5.60
2023-05-09T00:09:41.518Z,6.10
2023-05-09T00:12:12.484Z,5.90
2023-05-09T00:14:40.746Z,5.40
2023-05-09T00:17:09.751Z,5.47
2023-05-09T00:19:38.198Z,6.10
2023-05-09T00:22:06.407Z,6.30
2023-05-09T00:24:34.368Z,14.33
2023-05-09T00:27:04.418Z,14.90
2023-05-09T00:29:32.666Z,13.67
2023-05-09T00:32:01.231Z,16.60
2023-05-09T00:34:29.505Z,17.23
2023-05-09T00:36:57.623Z,17.50
2023-05-09T00:39:25.973Z,16.93
2023-05-09T00:41:53.917Z,19.70
2023-05-09T00:44:23.412Z,17.53
2023-05-09T00:46:51.372Z,20.33
2023-05-09T00:49:19.398Z,18.87
2023-05-09T00:51:47.861Z,18.33
2023-05-09T00:54:16.087Z,20.30
2023-05-09T00:56:44.199Z,20.97
2023-05-09T00:59:12.260Z,20.73
2023-05-09T01:01:41.895Z,20.87
2023-05-09T01:04:11.096Z,20.87
2023-05-09T01:06:43.356Z,20.40
2023-05-09T01:09:16.595Z,20.80
2023-05-09T01:11:46.862Z,21.47
2023-05-09T01:14:17.365Z,22.07
2023-05-09T01:16:48.796Z,20.37
2023-05-09T01:19:34.668Z,20.90
2023-05-09T01:22:03.014Z,20.97
2023-05-09T01:25:12.079Z,20.07
2023-05-09T01:27:45.390Z,20.20
2023-05-09T01:30:14.925Z,18.90
2023-05-09T01:32:44.153Z,19.90
2023-05-09T01:35:13.638Z,20.63
2023-05-09T01:37:43.740Z,20.43
2023-05-09T01:40:14.562Z,18.43
2023-05-09T01:42:44.006Z,19.43
2023-05-09T01:45:14.341Z,19.00
2023-05-09T01:47:42.550Z,18.60
2023-05-09T01:50:11.466Z,20.27
2023-05-09T01:52:39.535Z,19.33
2023-05-09T01:55:09.083Z,19.00
2023-05-09T01:57:37.092Z,19.40
2023-05-09T02:00:07.949Z,18.20
2023-05-09T02:02:37.636Z,18.80
2023-05-09T02:05:06.493Z,18.10
2023-05-09T02:07:34.402Z,18.57
2023-05-09T02:10:02.324Z,18.70
2023-05-09T02:12:30.175Z,17.17
2023-05-09T02:14:58.759Z,17.63
2023-05-09T02:17:29.501Z,16.67
2023-05-09T02:19:58.853Z,16.10
2023-05-09T02:22:26.994Z,15.70
2023-05-09T02:24:54.828Z,16.30
2023-05-09T02:27:22.759Z,15.57
2023-05-09T02:29:51.809Z,16.13
2023-05-09T02:32:23.016Z,15.67
2023-05-09T02:34:51.934Z,15.97
2023-05-09T02:37:23.021Z,15.57
2023-05-09T02:39:52.272Z,15.33
2023-05-09T02:42:21.920Z,15.23
2023-05-09T02:44:49.842Z,14.77
2023-05-09T02:47:17.846Z,14.20
2023-05-09T02:49:46.053Z,14.50
2023-05-09T02:52:14.201Z,14.20
2023-05-09T02:54:43.591Z,13.43
2023-05-09T02:57:11.259Z,14.13
2023-05-09T02:59:38.950Z,13.90
2023-05-09T03:02:06.889Z,13.47
2023-05-09T03:04:34.631Z,13.30
2023-05-09T03:07:02.674Z,12.10
2023-05-09T03:09:30.806Z,12.50
2023-05-09T03:11:59.852Z,12.60
2023-05-09T03:14:27.822Z,12.37
2023-05-09T03:16:55.734Z,11.77
2023-05-09T03:19:23.693Z,11.40
2023-05-09T03:21:52.173Z,11.70
2023-05-09T03:24:20.034Z,11.40
2023-05-09T03:26:47.999Z,12.50
2023-05-09T03:29:17.522Z,11.70
2023-05-09T03:31:46.335Z,11.33
2023-05-09T03:34:15.437Z,10.30
2023-05-09T03:36:43.687Z,11.03
2023-05-09T03:39:11.649Z,10.07
2023-05-09T03:41:39.824Z,10.73
2023-05-09T03:44:08.665Z,10.63
2023-05-09T03:46:38.149Z,9.50
2023-05-09T03:49:06.155Z,10.13
2023-05-09T03:51:34.051Z,10.00
2023-05-09T03:54:02.397Z,10.17
2023-05-09T03:56:30.195Z,10.07
2023-05-09T03:58:57.894Z,10.10
2023-05-09T04:01:26.227Z,9.60
2023-05-09T04:03:57.575Z,8.83
2023-05-09T04:06:25.666Z,8.73
2023-05-09T04:08:53.795Z,9.20
2023-05-09T04:11:22.220Z,10.00
2023-05-09T04:13:50.544Z,8.00
2023-05-09T04:16:19.022Z,8.40
2023-05-09T04:18:47.096Z,8.00
2023-05-09T04:21:16.478Z,8.90
2023-05-09T04:23:45.086Z,8.90
2023-05-09T04:26:13.991Z,8.70
2023-05-09T04:28:42.528Z,8.37
2023-05-09T04:31:12.843Z,7.90
2023-05-09T04:33:41.058Z,7.77
2023-05-09T04:36:09.682Z,8.30
2023-05-09T04:38:39.000Z,8.30
2023-05-09T04:41:07.601Z,7.53
2023-05-09T04:43:35.857Z,7.83
2023-05-09T04:46:03.827Z,7.80
2023-05-09T04:48:31.765Z,7.53
2023-05-09T04:50:59.606Z,7.50
2023-05-09T04:53:28.273Z,7.70
2023-05-09T04:55:58.115Z,6.90
2023-05-09T04:58:26.595Z,6.90
2023-05-09T05:00:55.004Z,7.10
2023-05-09T05:03:23.101Z,6.90
2023-05-09T05:05:51.301Z,6.87
2023-05-09T05:08:19.473Z,7.47
2023-05-09T05:10:47.787Z,7.33
2023-05-09T05:13:17.292Z,6.90
2023-05-09T05:15:45.481Z,6.43
2023-05-09T05:18:13.533Z,7.10
2023-05-09T05:20:41.748Z,6.60
2023-05-09T05:23:09.693Z,6.60
2023-05-09T05:25:37.642Z,6.60
2023-05-09T05:28:05.731Z,6.13
2023-05-09T05:30:35.468Z,6.00
2023-05-09T05:33:03.370Z,6.90
2023-05-09T05:35:31.393Z,6.53
2023-05-09T05:37:59.254Z,6.67
2023-05-09T05:40:27.114Z,6.50
2023-05-09T05:42:55.721Z,5.90
2023-05-09T05:45:23.791Z,5.43
2023-05-09T05:47:53.207Z,5.60
2023-05-09T05:50:21.696Z,5.80
2023-05-09T05:52:49.538Z,6.03
2023-05-09T05:55:17.858Z,6.13
2023-05-09T05:57:47.021Z,5.60
2023-05-09T06:00:16.481Z,6.43
2023-05-09T06:02:44.953Z,5.77
2023-05-09T06:05:14.709Z,5.37
2023-05-09T06:07:44.254Z,5.60
2023-05-09T06:10:12.225Z,5.83
2023-05-09T06:12:40.263Z,5.43
2023-05-09T06:15:09.000Z,4.90
2023-05-09T06:17:37.065Z,5.30
2023-05-09T06:20:06.235Z,4.83
2023-05-09T06:22:35.651Z,5.53
2023-05-09T06:25:03.993Z,5.60
2023-05-09T06:27:31.963Z,5.07
2023-05-09T06:30:01.353Z,5.03
2023-05-09T06:32:30.680Z,5.20
2023-05-09T06:34:59.001Z,5.30
2023-05-09T06:37:26.908Z,4.87
2023-05-09T06:39:56.327Z,4.93
2023-05-09T06:42:24.287Z,4.90
2023-05-09T06:44:52.252Z,5.73
2023-05-09T06:47:20.309Z,4.83
2023-05-09T06:49:48.656Z,4.97
2023-05-09T06:52:16.945Z,4.53
2023-05-09T06:54:44.916Z,5.10
2023-05-09T06:57:14.478Z,4.80
2023-05-09T06:59:42.384Z,4.37
2023-05-09T07:02:10.244Z,5.03
2023-05-09T07:04:38.256Z,4.87
2023-05-09T07:07:06.301Z,4.80
2023-05-09T07:09:34.287Z,5.00
2023-05-09T07:12:02.231Z,4.50
2023-05-09T07:14:31.572Z,4.90
2023-05-09T07:17:13.727Z,4.70
2023-05-09T07:19:46.730Z,4.60
2023-05-09T07:22:14.677Z,4.40
2023-05-09T07:24:44.396Z,4.70
2023-05-09T07:27:12.406Z,4.97
2023-05-09T07:29:42.435Z,4.87
2023-05-09T07:32:10.539Z,6.60
2023-05-09T07:34:38.802Z,6.77
2023-05-09T07:37:06.661Z,8.60
2023-05-09T07:39:34.967Z,8.20
2023-05-09T07:42:03.666Z,8.27
2023-05-09T07:44:31.370Z,8.60
2023-05-09T07:47:01.164Z,9.40
2023-05-09T07:49:29.118Z,9.53
2023-05-09T07:51:57.516Z,8.93
2023-05-09T07:54:25.503Z,9.00
2023-05-09T07:56:53.308Z,9.73
2023-05-09T07:59:21.335Z,9.60
2023-05-09T08:01:49.268Z,8.83
2023-05-09T08:04:18.706Z,9.10
2023-05-09T08:06:46.664Z,9.10
2023-05-09T08:09:14.743Z,10.50
2023-05-09T08:11:42.702Z,10.10
2023-05-09T08:14:10.693Z,9.90
2023-05-09T08:16:38.945Z,10.60
2023-05-09T08:19:06.921Z,10.73
2023-05-09T08:21:36.651Z,10.80
2023-05-09T08:24:06.136Z,10.20
2023-05-09T08:26:34.553Z,10.73
2023-05-09T08:29:02.502Z,11.20
2023-05-09T08:31:30.813Z,11.80
2023-05-09T08:33:58.651Z,10.50
2023-05-09T08:36:26.661Z,11.07
2023-05-09T08:38:56.065Z,10.50
2023-05-09T08:41:26.294Z,10.70
2023-05-09T08:43:54.613Z,12.20
2023-05-09T08:46:26.360Z,11.90
2023-05-09T08:48:54.221Z,9.80
2023-05-09T08:51:22.563Z,9.13
2023-05-09T08:53:52.065Z,7.77
2023-05-09T08:56:21.889Z,6.50
2023-05-09T08:58:49.761Z,5.93
2023-05-09T09:01:17.579Z,6.10
2023-05-09T09:03:47.667Z,6.37
2023-05-09T09:06:15.897Z,5.90
2023-05-09T09:08:43.960Z,5.77
2023-05-09T09:11:12.363Z,5.10
2023-05-09T09:13:42.238Z,4.97
2023-05-09T09:16:11.400Z,5.60
2023-05-09T09:18:39.960Z,5.10
2023-05-09T09:21:08.656Z,4.70
2023-05-09T09:23:36.631Z,5.87
2023-05-09T09:26:05.370Z,5.60
2023-05-09T09:28:33.336Z,4.87
2023-05-09T09:31:03.304Z,5.30
2023-05-09T09:33:31.342Z,4.47
2023-05-09T09:36:00.053Z,4.90
2023-05-09T09:38:27.982Z,4.97
2023-05-09T09:40:56.602Z,4.97
2023-05-09T09:43:33.296Z,5.10
2023-05-09T09:46:03.684Z,4.77
2023-05-09T09:48:33.599Z,4.73
2023-05-09T09:51:10.044Z,4.83
2023-05-09T09:53:41.373Z,4.20
2023-05-09T09:56:09.576Z,5.30
2023-05-09T09:58:37.545Z,4.53
2023-05-09T10:01:07.776Z,5.13
2023-05-09T10:03:39.806Z,5.13
2023-05-09T10:06:10.814Z,4.87
2023-05-09T10:08:38.650Z,4.80
2023-05-09T10:11:07.383Z,5.07
2023-05-09T10:13:35.933Z,4.77
2023-05-09T10:16:04.555Z,5.10
2023-05-09T10:18:34.070Z,5.13
2023-05-09T10:21:04.145Z,4.90
2023-05-09T10:23:32.853Z,5.00
2023-05-09T10:26:06.377Z,5.20
2023-05-09T10:28:35.502Z,5.13
2023-05-09T10:31:08.948Z,5.13
2023-05-09T10:33:42.624Z,5.07
2023-05-09T10:36:10.505Z,4.30
2023-05-09T10:38:38.336Z,5.03
2023-05-09T10:41:06.420Z,4.70
2023-05-09T10:43:36.616Z,4.60
2023-05-09T10:46:05.307Z,4.77
2023-05-09T10:48:33.569Z,5.20
2023-05-09T10:51:02.934Z,4.80
2023-05-09T10:53:42.156Z,5.00
2023-05-09T10:56:10.023Z,4.97
2023-05-09T10:58:40.464Z,5.20
2023-05-09T11:01:08.386Z,4.93
2023-05-09T11:03:54.455Z,4.90
2023-05-09T11:06:44.021Z,5.00
2023-05-09T11:09:32.983Z,5.20
2023-05-09T11:12:08.586Z,5.40
2023-05-09T11:14:41.090Z,4.93
2023-05-09T11:17:09.607Z,5.53
2023-05-09T11:19:38.979Z,5.30
2023-05-09T11:22:15.126Z,5.07
2023-05-09T11:24:46.276Z,5.10
2023-05-09T11:27:18.443Z,5.40
2023-05-09T11:29:47.583Z,6.33
2023-05-09T11:32:16.496Z,6.40
2023-05-09T11:34:44.969Z,5.90
2023-05-09T11:37:15.328Z,5.63
2023-05-09T11:39:59.515Z,5.93
2023-05-09T11:42:28.706Z,6.20
2023-05-09T11:44:57.081Z,6.90
2023-05-09T11:47:25.096Z,7.43
2023-05-09T11:49:53.108Z,8.57
2023-05-09T11:52:23.972Z,7.47
2023-05-09T11:54:51.846Z,8.10
2023-05-09T11:57:19.751Z,8.10
2023-05-09T11:59:47.639Z,7.90
2023-05-09T12:02:15.615Z,7.00
2023-05-09T12:04:44.273Z,7.40
2023-05-09T12:07:13.087Z,7.40
2023-05-09T12:09:43.684Z,7.10
2023-05-09T12:12:14.866Z,6.80
2023-05-09T12:14:44.864Z,6.40
2023-05-09T12:17:12.788Z,6.90
2023-05-09T12:19:40.880Z,6.80
2023-05-09T12:22:09.982Z,7.10
2023-05-09T12:24:38.196Z,6.53
2023-05-09T12:27:08.042Z,7.17
2023-05-09T12:29:35.935Z,7.30
2023-05-09T12:32:03.809Z,6.80
2023-05-09T12:34:32.133Z,7.13
2023-05-09T12:37:03.498Z,7.10
2023-05-09T12:39:31.260Z,6.70
2023-05-09T12:42:01.985Z,6.70
2023-05-09T12:44:32.179Z,7.30
2023-05-09T12:47:00.951Z,7.23
2023-05-09T12:49:29.131Z,6.90
2023-05-09T12:51:58.802Z,6.90
2023-05-09T12:54:27.849Z,6.53
2023-05-09T12:56:58.848Z,6.33
2023-05-09T12:59:27.511Z,6.60
2023-05-09T13:01:57.985Z,7.23
2023-05-09T13:04:26.140Z,7.27
2023-05-09T13:06:55.986Z,7.37
2023-05-09T13:09:24.198Z,7.30
2023-05-09T13:11:52.483Z,6.80
2023-05-09T13:14:20.739Z,7.30
2023-05-09T13:16:48.817Z,7.13
2023-05-09T13:19:18.228Z,7.43
2023-05-09T13:21:46.078Z,7.23
2023-05-09T13:24:13.797Z,7.10
2023-05-09T13:26:41.989Z,6.47
2023-05-09T13:29:09.851Z,7.20
2023-05-09T13:31:37.788Z,7.50
2023-05-09T13:34:05.624Z,7.00
2023-05-09T13:36:34.881Z,7.73
2023-05-09T13:39:03.300Z,6.93
2023-05-09T13:41:32.601Z,6.50
2023-05-09T13:44:00.443Z,6.40
2023-05-09T13:46:28.380Z,7.10
2023-05-09T13:48:56.786Z,7.10
2023-05-09T13:51:25.073Z,6.97
2023-05-09T13:53:54.442Z,7.00
2023-05-09T13:56:22.563Z,7.20
2023-05-09T13:58:50.860Z,7.00
2023-05-09T14:01:18.802Z,7.10
2023-05-09T14:03:49.159Z,6.90
2023-05-09T14:06:17.129Z,8.10
2023-05-09T14:08:45.028Z,7.07
2023-05-09T14:11:14.291Z,6.90
2023-05-09T14:13:42.230Z,6.70
2023-05-09T14:16:10.255Z,6.47
2023-05-09T14:18:38.262Z,6.67
2023-05-09T14:21:07.181Z,7.13
2023-05-09T14:23:35.503Z,7.20
2023-05-09T14:26:03.387Z,6.20
2023-05-09T14:28:32.831Z,7.00
2023-05-09T14:31:01.868Z,7.03
2023-05-09T14:33:30.248Z,7.37
2023-05-09T14:35:58.173Z,6.60
2023-05-09T14:38:26.147Z,6.60
2023-05-09T14:40:54.113Z,6.93
2023-05-09T14:43:22.696Z,7.57
2023-05-09T14:45:52.314Z,6.50
2023-05-09T14:48:20.390Z,6.93
2023-05-09T14:50:49.603Z,7.30
2023-05-09T14:53:17.420Z,6.53
2023-05-09T14:55:45.142Z,5.90
2023-05-09T14:58:14.319Z,6.00
2023-05-09T15:00:42.657Z,5.90
2023-05-09T15:03:11.758Z,5.70
2023-05-09T15:05:40.255Z,5.50
2023-05-09T15:08:08.297Z,5.77
2023-05-09T15:10:36.278Z,5.03
2023-05-09T15:13:05.912Z,5.97
2023-05-09T15:15:34.405Z,5.17
2023-05-09T15:18:02.872Z,6.07
2023-05-09T15:20:32.385Z,6.13
2023-05-09T15:23:00.288Z,5.33
2023-05-09T15:25:28.568Z,5.73
2023-05-09T15:27:57.226Z,5.50
2023-05-09T15:30:25.282Z,5.80
2023-05-09T15:32:53.367Z,5.70
2023-05-09T15:35:21.371Z,6.07
2023-05-09T15:37:50.845Z,6.37
2023-05-09T15:40:18.895Z,5.97
2023-05-09T15:42:48.385Z,5.90
2023-05-09T15:45:16.810Z,5.90
2023-05-09T15:47:44.722Z,6.90
2023-05-09T15:50:13.249Z,6.03
2023-05-09T15:52:41.295Z,6.20
2023-05-09T15:55:12.923Z,7.10
2023-05-09T15:57:41.050Z,6.30
2023-05-09T16:00:10.462Z,6.67
2023-05-09T16:02:38.378Z,6.77
2023-05-09T16:05:07.417Z,6.10
2023-05-09T16:07:36.009Z,6.63
2023-05-09T16:10:04.108Z,6.33
2023-05-09T16:12:33.856Z,6.67
2023-05-09T16:15:01.795Z,7.50
2023-05-09T16:17:31.647Z,7.20
2023-05-09T16:20:00.044Z,7.27
2023-05-09T16:22:28.180Z,7.27
2023-05-09T16:24:56.483Z,6.53
2023-05-09T16:27:24.408Z,6.60
2023-05-09T16:29:54.468Z,6.60
2023-05-09T16:32:22.486Z,6.30
2023-05-09T16:34:50.353Z,5.87
2023-05-09T16:37:18.993Z,6.30
2023-05-09T16:39:47.022Z,5.90
2023-05-09T16:42:15.307Z,6.10
2023-05-09T16:44:43.335Z,6.03
2023-05-09T16:47:12.620Z,7.27
2023-05-09T16:49:40.590Z,6.53
2023-05-09T16:52:08.487Z,6.00
2023-05-09T16:54:36.647Z,6.97
2023-05-09T16:57:04.416Z,6.30
2023-05-09T16:59:32.764Z,6.13
2023-05-09T17:02:00.562Z,6.30
2023-05-09T17:04:30.139Z,6.83
2023-05-09T17:06:58.172Z,6.27
2023-05-09T17:09:26.267Z,6.33
2023-05-09T17:11:56.975Z,6.83
2023-05-09T17:14:24.930Z,6.57
2023-05-09T17:16:53.179Z,6.40
2023-05-09T17:19:23.758Z,6.30
2023-05-09T17:21:53.490Z,7.30
2023-05-09T17:24:21.452Z,6.90
2023-05-09T17:26:56.133Z,7.50
2023-05-09T17:29:24.345Z,7.17
2023-05-09T17:31:52.287Z,6.60
2023-05-09T17:34:20.403Z,6.53
2023-05-09T17:36:48.376Z,7.30
2023-05-09T17:39:20.905Z,7.63
2023-05-09T17:41:49.238Z,6.80
2023-05-09T17:44:17.083Z,6.63
2023-05-09T17:46:45.577Z,6.70
2023-05-09T17:49:14.100Z,7.23
2023-05-09T17:51:42.362Z,7.20
2023-05-09T17:54:11.156Z,7.13
2023-05-09T17:56:41.017Z,6.43
2023-05-09T17:59:09.461Z,6.87
2023-05-09T18:01:37.714Z,6.60
2023-05-09T18:04:09.771Z,6.70
2023-05-09T18:06:38.088Z,7.63
2023-05-09T18:09:06.700Z,7.43
2023-05-09T18:11:34.665Z,6.67
2023-05-09T18:14:08.484Z,8.07
2023-05-09T18:16:38.260Z,6.90
2023-05-09T18:19:07.478Z,7.30
2023-05-09T18:21:41.746Z,7.40
2023-05-09T18:24:10.229Z,7.50
2023-05-09T18:26:38.274Z,8.03
2023-05-09T18:29:07.946Z,7.33
2023-05-09T18:31:38.815Z,7.20
2023-05-09T18:34:07.259Z,7.20
2023-05-09T18:36:35.406Z,6.90
2023-05-09T18:39:04.028Z,7.00
2023-05-09T18:41:33.829Z,7.17
2023-05-09T18:44:05.390Z,6.40
2023-05-09T18:46:34.787Z,6.87
2023-05-09T18:49:04.210Z,6.63
2023-05-09T18:51:34.067Z,7.17
2023-05-09T18:54:02.279Z,6.60
2023-05-09T18:56:39.021Z,7.00
2023-05-09T18:59:08.656Z,6.70
2023-05-09T19:01:38.942Z,7.13
2023-05-09T19:04:07.530Z,6.97
2023-05-09T19:06:36.240Z,7.20
2023-05-09T19:09:04.652Z,6.63
2023-05-09T19:11:32.666Z,7.17
2023-05-09T19:14:00.827Z,7.00
2023-05-09T19:16:30.892Z,7.40
2023-05-09T19:19:00.980Z,7.43
2023-05-09T19:21:29.864Z,7.23
2023-05-09T19:23:58.189Z,7.40
2023-05-09T19:26:30.151Z,7.13
2023-05-09T19:28:58.799Z,7.40
2023-05-09T19:31:27.137Z,7.13
2023-05-09T19:33:55.635Z,6.80
2023-05-09T19:36:25.256Z,6.57
2023-05-09T19:38:53.643Z,6.83
2023-05-09T19:41:21.657Z,7.63
2023-05-09T19:43:51.218Z,7.33
2023-05-09T19:46:19.469Z,7.77
2023-05-09T19:48:47.460Z,7.50
2023-05-09T19:51:15.621Z,7.10
2023-05-09T19:53:45.102Z,7.30
2023-05-09T19:56:13.766Z,7.47
2023-05-09T19:58:41.768Z,7.77
2023-05-09T20:01:10.158Z,7.57
2023-05-09T20:03:40.913Z,7.43
2023-05-09T20:06:09.626Z,7.40
2023-05-09T20:08:37.681Z,7.10
2023-05-09T20:11:07.920Z,7.90
2023-05-09T20:13:35.906Z,7.40
2023-05-09T20:16:04.386Z,7.30
2023-05-09T20:18:33.649Z,7.90
2023-05-09T20:21:02.040Z,7.57
2023-05-09T20:23:32.739Z,8.00
2023-05-09T20:26:01.420Z,8.00
2023-05-09T20:28:30.848Z,7.87
2023-05-09T20:30:58.813Z,7.97
2023-05-09T20:33:26.718Z,8.87
2023-05-09T20:35:54.723Z,8.20
2023-05-09T20:38:22.763Z,8.10
2023-05-09T20:40:50.862Z,8.60
2023-05-09T20:43:19.116Z,8.30
2023-05-09T20:45:48.456Z,8.07
2023-05-09T20:48:16.517Z,8.00
2023-05-09T20:50:44.806Z,8.33
2023-05-09T20:53:12.730Z,8.13
2023-05-09T20:55:40.504Z,7.30
2023-05-09T20:58:08.179Z,7.73
2023-05-09T21:00:36.219Z,7.60
2023-05-09T21:03:05.907Z,7.80
2023-05-09T21:05:34.120Z,7.90
2023-05-09T21:08:02.033Z,8.20
2023-05-09T21:10:30.096Z,8.03
2023-05-09T21:12:58.090Z,8.23
2023-05-09T21:15:26.069Z,7.20
2023-05-09T21:17:54.013Z,7.67
2023-05-09T21:20:23.509Z,7.37
2023-05-09T21:22:51.746Z,7.10
2023-05-09T21:25:19.768Z,7.10
2023-05-09T21:27:47.912Z,7.10
2023-05-09T21:30:16.136Z,6.83
2023-05-09T21:32:44.266Z,7.37
2023-05-09T21:35:13.247Z,7.70
2023-05-09T21:37:42.775Z,6.80
2023-05-09T21:40:11.478Z,6.57
2023-05-09T21:42:40.320Z,7.30
2023-05-09T21:45:09.129Z,6.80
2023-05-09T21:47:37.127Z,6.90
2023-05-09T21:50:05.596Z,6.80
2023-05-09T21:52:33.528Z,6.90
2023-05-09T21:55:03.194Z,6.70
2023-05-09T21:57:31.354Z,7.13
2023-05-09T22:00:01.442Z,6.80
2023-05-09T22:02:29.683Z,6.77
2023-05-09T22:04:57.738Z,7.00
2023-05-09T22:07:25.756Z,6.70
2023-05-09T22:09:54.198Z,7.10
2023-05-09T22:12:24.033Z,6.23
2023-05-09T22:14:56.195Z,6.60
2023-05-09T22:17:25.222Z,6.50
2023-05-09T22:19:53.100Z,6.40
2023-05-09T22:22:21.754Z,6.33
2023-05-09T22:24:49.795Z,6.40
2023-05-09T22:27:18.093Z,6.90
2023-05-09T22:29:47.445Z,6.10
2023-05-09T22:32:15.588Z,6.40
2023-05-09T22:34:43.482Z,6.40
2023-05-09T22:37:11.398Z,7.13
2023-05-09T22:39:39.677Z,6.20
2023-05-09T22:42:09.817Z,5.90
2023-05-09T22:44:38.482Z,6.27
2023-05-09T22:47:08.952Z,6.70
2023-05-09T22:49:37.547Z,7.60
2023-05-09T22:52:06.072Z,9.53
2023-05-09T22:54:34.695Z,9.37
2023-05-09T22:57:02.430Z,9.13
2023-05-09T22:59:31.022Z,9.23
2023-05-09T23:01:59.249Z,9.80
2023-05-09T23:04:28.759Z,9.60
2023-05-09T23:06:56.772Z,10.00
2023-05-09T23:09:24.691Z,11.17
2023-05-09T23:11:54.999Z,10.50
2023-05-09T23:14:25.745Z,11.13
2023-05-09T23:16:53.662Z,10.13
2023-05-09T23:19:21.624Z,10.97
2023-05-09T23:21:51.144Z,11.60
2023-05-09T23:24:19.467Z,11.87
2023-05-09T23:26:47.339Z,11.67
2023-05-09T23:29:15.398Z,10.83
2023-05-09T23:31:43.918Z,11.20
2023-05-09T23:34:12.058Z,11.13
2023-05-09T23:36:40.019Z,11.13
2023-05-09T23:39:09.438Z,11.37
2023-05-09T23:41:37.391Z,11.20
2023-05-09T23:44:07.122Z,12.40
2023-05-09T23:46:34.975Z,12.53
2023-05-09T23:49:02.927Z,11.10
2023-05-09T23:51:31.013Z,11.43
2023-05-09T23:53:59.196Z,10.80
2023-05-09T23:56:28.677Z,10.60
2023-05-09T23:58:56.720Z,11.27
